createdAt,value
2023-01-27T00:02:03.796Z,1.80
2023-01-27T00:07:05.968Z,1.85
2023-01-27T00:12:38.175Z,3.05
2023-01-27T00:17:40.409Z,1.23
2023-01-27T00:23:17.759Z,1.52
2023-01-27T00:28:22.909Z,2.97
2023-01-27T00:33:26.238Z,1.40
2023-01-27T00:38:30.478Z,1.98
2023-01-27T00:43:32.744Z,1.17
2023-01-27T00:48:35.421Z,1.70
2023-01-27T00:53:38.812Z,1.45
2023-01-27T00:58:41.142Z,2.63
2023-01-27T01:03:44.269Z,1.05
2023-01-27T01:08:46.942Z,1.08
2023-01-27T01:13:49.720Z,1.60
2023-01-27T01:18:52.323Z,2.85
2023-01-27T01:23:55.727Z,1.70
2023-01-27T01:28:57.883Z,2.08
2023-01-27T01:34:02.611Z,2.25
2023-01-27T01:39:04.744Z,1.15
2023-01-27T01:44:30.972Z,1.88
2023-01-27T01:49:41.054Z,1.00
2023-01-27T01:54:48.235Z,1.30
2023-01-27T02:00:07.054Z,1.88
2023-01-27T02:05:27.434Z,2.97
2023-01-27T02:10:29.572Z,1.40
2023-01-27T02:15:31.874Z,1.05
2023-01-27T02:20:45.814Z,2.45
2023-01-27T02:25:51.228Z,1.25
2023-01-27T02:30:53.473Z,1.17
2023-01-27T02:36:07.437Z,1.25
2023-01-27T02:41:16.116Z,1.50
2023-01-27T02:46:20.046Z,1.10
2023-01-27T02:51:22.706Z,1.20
2023-01-27T02:56:25.137Z,2.17
2023-01-27T03:01:32.717Z,1.45
2023-01-27T03:06:35.737Z,1.48
2023-01-27T03:11:57.085Z,1.58
2023-01-27T03:17:17.891Z,1.90
2023-01-27T03:22:20.456Z,1.50
2023-01-27T03:27:22.968Z,1.25
2023-01-27T03:32:48.204Z,1.02
2023-01-27T03:38:33.430Z,0.90
2023-01-27T03:43:55.334Z,1.30
2023-01-27T03:48:59.879Z,1.40
2023-01-27T03:54:02.009Z,2.05
2023-01-27T03:59:04.140Z,1.10
2023-01-27T04:04:24.766Z,1.00
2023-01-27T04:09:35.574Z,0.80
2023-01-27T04:14:39.289Z,0.80
2023-01-27T04:19:41.457Z,1.15
2023-01-27T04:24:45.346Z,0.45
2023-01-27T04:29:47.474Z,0.57
2023-01-27T04:34:49.620Z,0.90
2023-01-27T04:39:51.795Z,1.48
2023-01-27T04:44:53.949Z,0.47
2023-01-27T04:49:56.082Z,1.80
2023-01-27T04:54:58.244Z,0.55
2023-01-27T05:00:00.392Z,0.45
2023-01-27T05:05:04.798Z,0.70
2023-01-27T05:10:07.969Z,0.45
2023-01-27T05:15:10.419Z,0.70
2023-01-27T05:20:12.870Z,1.00
2023-01-27T05:25:15.522Z,0.50
2023-01-27T05:30:18.268Z,0.50
2023-01-27T05:35:20.369Z,0.52
2023-01-27T05:40:22.537Z,0.77
2023-01-27T05:45:24.723Z,0.65
2023-01-27T05:50:27.089Z,1.65
2023-01-27T05:55:29.254Z,1.55
2023-01-27T06:00:31.654Z,2.08
2023-01-27T06:05:33.771Z,2.28
2023-01-27T06:10:37.402Z,1.80
2023-01-27T06:15:44.914Z,1.92
2023-01-27T06:20:47.055Z,2.47
2023-01-27T06:25:49.560Z,2.50
2023-01-27T06:30:53.003Z,2.03
2023-01-27T06:36:07.479Z,2.33
2023-01-27T06:41:09.670Z,3.33
2023-01-27T06:46:12.360Z,2.53
2023-01-27T06:51:14.680Z,2.90
2023-01-27T06:56:17.611Z,2.42
2023-01-27T07:01:19.882Z,3.10
2023-01-27T07:06:22.179Z,2.30
2023-01-27T07:11:25.469Z,3.63
2023-01-27T07:16:27.700Z,2.60
2023-01-27T07:21:29.779Z,2.67
2023-01-27T07:26:32.328Z,3.90
2023-01-27T07:31:34.471Z,3.60
2023-01-27T07:36:36.566Z,2.67
2023-01-27T07:41:38.643Z,2.47
2023-01-27T07:46:40.758Z,2.67
2023-01-27T07:51:42.821Z,2.33
2023-01-27T07:56:44.904Z,2.45
2023-01-27T08:01:48.286Z,1.77
2023-01-27T08:06:50.606Z,1.55
2023-01-27T08:11:52.712Z,1.25
2023-01-27T08:16:54.823Z,1.30
2023-01-27T08:21:56.971Z,0.98
2023-01-27T08:26:59.232Z,2.03
2023-01-27T08:32:01.292Z,1.50
2023-01-27T08:37:03.677Z,1.63
2023-01-27T08:42:05.797Z,1.23
2023-01-27T08:47:07.884Z,0.80
2023-01-27T08:52:10.031Z,0.93
2023-01-27T08:57:12.170Z,0.80
2023-01-27T09:02:14.511Z,0.77
2023-01-27T09:07:17.438Z,0.73
2023-01-27T09:12:19.549Z,0.68
2023-01-27T09:17:21.643Z,0.40
2023-01-27T09:22:23.977Z,0.65
2023-01-27T09:27:38.104Z,0.50
2023-01-27T09:32:44.178Z,0.88
2023-01-27T09:37:58.564Z,0.70
2023-01-27T09:43:26.406Z,0.38
2023-01-27T09:49:06.165Z,0.30
2023-01-27T09:54:49.556Z,0.35
2023-01-27T10:00:25.739Z,0.40
2023-01-27T10:05:50.942Z,0.73
2023-01-27T10:10:58.857Z,0.40
2023-01-27T10:16:19.563Z,1.02
2023-01-27T10:21:33.414Z,0.40
2023-01-27T10:26:48.362Z,0.77
2023-01-27T10:32:13.579Z,0.40
2023-01-27T10:37:34.324Z,1.08
2023-01-27T10:43:06.155Z,1.88
2023-01-27T10:48:26.761Z,0.85
2023-01-27T10:53:46.275Z,0.93
2023-01-27T10:58:55.979Z,1.20
2023-01-27T11:04:16.644Z,1.17
2023-01-27T11:09:30.708Z,1.35
2023-01-27T11:14:47.710Z,1.52
2023-01-27T11:19:49.763Z,1.00
2023-01-27T11:25:10.321Z,1.95
2023-01-27T11:30:19.759Z,1.35
2023-01-27T11:35:25.374Z,1.33
2023-01-27T11:40:33.983Z,0.70
2023-01-27T11:45:36.972Z,0.88
2023-01-27T11:50:41.231Z,1.00
2023-01-27T11:55:56.047Z,0.80
2023-01-27T12:01:01.940Z,1.33
2023-01-27T12:06:11.659Z,0.90
2023-01-27T12:11:22.652Z,2.17
2023-01-27T12:16:41.706Z,0.90
2023-01-27T12:21:49.581Z,0.77
2023-01-27T12:26:53.572Z,1.52
2023-01-27T12:31:59.452Z,1.45
2023-01-27T12:37:04.163Z,0.63
2023-01-27T12:42:28.152Z,0.50
2023-01-27T12:47:31.434Z,0.90
2023-01-27T12:52:33.603Z,0.70
2023-01-27T12:57:35.805Z,0.70
2023-01-27T13:02:38.664Z,0.85
2023-01-27T13:07:47.075Z,0.60
2023-01-27T13:12:49.266Z,0.90
2023-01-27T13:17:56.371Z,0.57
2023-01-27T13:23:17.600Z,0.80
2023-01-27T13:28:51.791Z,0.90
2023-01-27T13:34:13.310Z,0.80
2023-01-27T13:39:22.758Z,1.00
2023-01-27T13:44:32.535Z,0.40
2023-01-27T13:50:04.892Z,0.20
2023-01-27T13:55:12.468Z,0.30
2023-01-27T14:00:21.124Z,0.43
2023-01-27T14:05:51.933Z,0.30
2023-01-27T14:11:22.768Z,0.45
2023-01-27T14:16:42.988Z,0.10
2023-01-27T14:22:00.105Z,0.45
2023-01-27T14:27:13.987Z,0.38
2023-01-27T14:32:42.191Z,0.40
2023-01-27T14:38:10.686Z,0.47
2023-01-27T14:43:44.486Z,0.30
2023-01-27T14:49:13.366Z,0.65
2023-01-27T14:54:34.349Z,0.75
2023-01-27T14:59:49.361Z,0.38
2023-01-27T15:05:12.061Z,0.70
2023-01-27T15:10:26.118Z,0.70
2023-01-27T15:15:55.748Z,0.55
2023-01-27T15:21:19.223Z,1.27
2023-01-27T15:26:28.477Z,0.55
2023-01-27T15:36:36.652Z,0.40
2023-01-27T15:41:52.553Z,0.68
2023-01-27T15:47:04.876Z,2.30
2023-01-27T15:52:47.319Z,1.25
2023-01-27T15:57:54.750Z,0.50
2023-01-27T16:03:04.831Z,1.73
2023-01-27T16:08:13.614Z,1.05
2023-01-27T16:13:28.492Z,2.03
2023-01-27T16:19:02.599Z,1.60
2023-01-27T16:24:33.856Z,0.93
2023-01-27T16:30:01.683Z,1.45
2023-01-27T16:35:07.639Z,1.48
2023-01-27T16:40:21.609Z,1.20
2023-01-27T16:45:29.054Z,0.80
2023-01-27T16:50:41.072Z,1.35
2023-01-27T16:55:43.551Z,2.65
2023-01-27T17:00:46.883Z,4.32
2023-01-27T17:05:54.581Z,2.10
2023-01-27T17:11:04.301Z,1.73
2023-01-27T17:16:09.249Z,3.05
2023-01-27T17:21:12.846Z,3.85
2023-01-27T17:26:19.011Z,3.70
2023-01-27T17:36:30.134Z,10.85
2023-01-27T17:41:38.106Z,4.90
2023-01-27T17:46:41.693Z,6.25
2023-01-27T17:51:55.771Z,9.82
2023-01-27T17:57:21.382Z,2.92
2023-01-27T18:02:28.487Z,3.88
2023-01-27T18:07:32.107Z,4.35
2023-01-27T18:12:37.078Z,3.30
2023-01-27T18:17:39.241Z,2.80
2023-01-27T18:22:46.321Z,2.50
2023-01-27T18:27:53.304Z,2.65
2023-01-27T18:33:02.947Z,3.20
2023-01-27T18:38:22.126Z,2.83
2023-01-27T18:43:24.598Z,2.55
2023-01-27T18:48:31.324Z,3.97
2023-01-27T18:53:35.453Z,6.13
2023-01-27T18:58:38.611Z,5.22
2023-01-27T19:03:41.210Z,5.78
2023-01-27T19:08:43.633Z,6.38
2023-01-27T19:13:46.911Z,3.20
2023-01-27T19:18:49.145Z,3.25
2023-01-27T19:23:53.429Z,1.90
2023-01-27T19:29:00.588Z,3.55
2023-01-27T19:34:04.492Z,2.55
2023-01-27T19:39:20.192Z,3.22
2023-01-27T19:44:22.423Z,2.40
2023-01-27T19:49:25.033Z,1.92
2023-01-27T19:54:27.476Z,2.88
2023-01-27T19:59:29.738Z,2.67
2023-01-27T20:04:31.991Z,4.90
2023-01-27T20:09:34.530Z,1.48
2023-01-27T20:14:36.699Z,1.80
2023-01-27T20:19:39.034Z,1.42
2023-01-27T20:24:43.575Z,1.98
2023-01-27T20:29:46.585Z,5.90
2023-01-27T20:34:48.703Z,11.80
2023-01-27T20:39:52.943Z,10.77
2023-01-27T20:44:55.176Z,11.25
2023-01-27T20:49:57.412Z,10.75
2023-01-27T20:54:59.638Z,10.25
2023-01-27T21:00:02.131Z,12.65
2023-01-27T21:05:06.097Z,8.98
2023-01-27T21:10:08.890Z,9.45
2023-01-27T21:15:11.887Z,8.45
2023-01-27T21:20:14.515Z,4.97
2023-01-27T21:25:17.090Z,4.03
2023-01-27T21:30:19.843Z,3.50
2023-01-27T21:35:22.280Z,3.88
2023-01-27T21:40:24.859Z,9.00
2023-01-27T21:45:28.656Z,11.25
2023-01-27T21:50:33.260Z,17.05
2023-01-27T21:55:35.553Z,14.38
2023-01-27T22:00:37.935Z,14.48
2023-01-27T22:05:40.162Z,18.80
2023-01-27T22:10:42.614Z,11.77
2023-01-27T22:15:50.276Z,14.60
2023-01-27T22:20:52.416Z,12.23
2023-01-27T22:25:54.828Z,10.43
2023-01-27T22:31:01.891Z,12.73
2023-01-27T22:36:05.965Z,10.05
2023-01-27T22:41:08.154Z,13.13
2023-01-27T22:46:10.459Z,9.77
2023-01-27T22:51:12.602Z,8.07
2023-01-27T22:56:15.613Z,9.35
2023-01-27T23:01:17.963Z,9.18
2023-01-27T23:06:20.197Z,8.50
2023-01-27T23:11:22.433Z,12.73
2023-01-27T23:16:25.025Z,9.10
2023-01-27T23:21:27.875Z,10.52
2023-01-27T23:26:30.313Z,10.98
2023-01-27T23:31:35.363Z,9.60
2023-01-27T23:36:37.711Z,8.48
2023-01-27T23:48:35.281Z,10.63
2023-01-27T23:53:37.422Z,8.98
2023-01-27T23:58:39.729Z,8.48
